Time;durP1;ratioP1;P1;durP2;ratioP2;P2;SDS_P1;SDS_P2;PMS_P1;PMS_P2;Temp;Humidity;BMP_temperature;BMP_pressure;BME280_temperature;BME280_humidity;BME280_pressure;Samples;Min_cycle;Max_cycle;Signal;HPM_P1;HPM_P2
2024/01/22 00:00:12;;;;;;;28.13;13.20;;;;;;;3.08;67.30;101281.31;4991753;28;20050;-79
2024/01/22 00:02:37;;;;;;;30.67;12.85;;;;;;;3.07;67.20;101279.53;4991815;28;20449;-80
2024/01/22 00:05:03;;;;;;;32.23;13.70;;;;;;;3.05;67.46;101278.56;4991537;28;20076;-80
2024/01/22 00:07:29;;;;;;;28.02;12.10;;;;;;;3.04;67.22;101281.09;4991660;28;20034;-80
2024/01/22 00:09:54;;;;;;;28.65;11.98;;;;;;;3.01;67.58;101285.34;4992066;28;20030;-80
2024/01/22 00:12:20;;;;;;;25.27;11.63;;;;;;;2.99;67.63;101287.00;4991736;28;20023;-79
2024/01/22 00:14:47;;;;;;;31.60;11.27;;;;;;;3.00;67.36;101287.88;4991449;28;20084;-79
2024/01/22 00:17:13;;;;;;;25.63;11.77;;;;;;;3.00;67.74;101288.78;4991520;28;20053;-80
2024/01/22 00:19:38;;;;;;;20.20;8.07;;;;;;;3.00;67.75;101293.06;4991374;28;20030;-80
2024/01/22 00:22:04;;;;;;;20.97;8.80;;;;;;;3.01;67.56;101297.47;4991437;28;20443;-80
2024/01/22 00:24:29;;;;;;;23.50;8.43;;;;;;;3.03;68.11;101294.94;4997049;28;20048;-79
2024/01/22 00:26:55;;;;;;;20.90;8.10;;;;;;;3.03;68.33;101288.03;4995151;28;20022;-79
2024/01/22 00:29:20;;;;;;;18.03;6.80;;;;;;;3.06;68.45;101288.16;4974183;28;20034;-80
2024/01/22 00:31:45;;;;;;;17.83;6.30;;;;;;;3.08;68.33;101278.72;4991167;28;20054;-80
2024/01/22 00:34:11;;;;;;;16.00;5.70;;;;;;;3.11;68.70;101281.44;4991017;28;20030;-80
2024/01/22 00:36:36;;;;;;;14.47;5.40;;;;;;;3.14;68.14;101271.16;4991079;28;20097;-80
2024/01/22 00:39:02;;;;;;;13.63;5.22;;;;;;;3.20;68.66;101274.84;4991273;28;20022;-80
2024/01/22 00:41:27;;;;;;;13.33;4.87;;;;;;;3.23;68.20;101268.06;5005567;28;20030;-80
2024/01/22 00:43:53;;;;;;;12.43;5.20;;;;;;;3.25;68.81;101260.28;5000297;28;20514;-80
2024/01/22 00:46:18;;;;;;;13.17;5.00;;;;;;;3.26;68.80;101259.50;4990979;28;20030;-79
2024/01/22 00:48:43;;;;;;;14.35;5.32;;;;;;;3.27;69.12;101261.28;4973587;28;20030;-79
2024/01/22 00:51:10;;;;;;;8.80;4.00;;;;;;;3.26;69.03;101251.69;4990856;28;20031;-79
2024/01/22 00:53:35;;;;;;;14.77;4.97;;;;;;;3.23;69.45;101248.94;4990805;28;20019;-80
2024/01/22 00:56:01;;;;;;;15.87;4.97;;;;;;;3.21;69.75;101241.06;4990738;28;20429;-80
2024/01/22 00:58:26;;;;;;;11.90;4.70;;;;;;;3.22;69.52;101231.53;4990610;28;20137;-79
2024/01/22 01:00:51;;;;;;;12.53;4.23;;;;;;;3.21;69.65;101230.66;4990408;28;20045;-81
2024/01/22 01:03:17;;;;;;;8.67;4.00;;;;;;;3.19;70.10;101226.22;4990565;28;20089;-80
2024/01/22 01:05:42;;;;;;;10.47;4.90;;;;;;;3.20;70.31;101217.56;4990650;28;20758;-80
2024/01/22 01:08:10;;;;;;;12.83;4.70;;;;;;;3.19;70.34;101208.88;4990636;28;20148;-80
2024/01/22 01:10:35;;;;;;;12.52;5.20;;;;;;;3.23;70.77;101209.88;4990569;28;20026;-80
2024/01/22 01:13:01;;;;;;;11.93;4.97;;;;;;;3.24;71.08;101214.25;4990537;28;20474;-80
2024/01/22 01:15:26;;;;;;;15.73;5.37;;;;;;;3.24;71.62;101214.25;4990376;28;20034;-80
2024/01/22 01:17:53;;;;;;;16.10;5.78;;;;;;;3.28;72.57;101213.59;4990442;28;20463;-80
2024/01/22 01:20:18;;;;;;;13.07;4.80;;;;;;;3.29;71.43;101223.19;4990455;28;20084;-80
2024/01/22 01:22:44;;;;;;;12.02;4.60;;;;;;;3.28;72.17;101221.41;4990397;28;20474;-80
2024/01/22 01:25:09;;;;;;;14.10;5.50;;;;;;;3.32;71.30;101228.50;4999471;28;20462;-79
2024/01/22 01:27:35;;;;;;;16.30;5.00;;;;;;;3.33;71.67;101234.59;4990658;28;20466;-80
2024/01/22 01:30:00;;;;;;;16.08;5.32;;;;;;;3.32;71.83;101238.91;4990252;28;20026;-79
2024/01/22 01:32:26;;;;;;;17.10;6.13;;;;;;;3.35;71.60;101232.94;4990416;28;20651;-80
2024/01/22 01:34:51;;;;;;;16.63;5.60;;;;;;;3.36;71.43;101240.81;4990222;28;20034;-80
2024/01/22 01:37:17;;;;;;;15.07;5.53;;;;;;;3.37;71.38;101236.47;4990640;28;20134;-80
2024/01/22 01:39:42;;;;;;;19.03;6.03;;;;;;;3.37;70.83;101226.97;4991663;28;20471;-80
2024/01/22 01:42:08;;;;;;;13.40;5.73;;;;;;;3.34;71.69;101231.16;5010598;28;20038;-81
2024/01/22 01:44:39;;;;;;;13.97;4.73;;;;;;;3.33;71.63;101235.50;4993967;28;20030;-81
2024/01/22 01:47:06;;;;;;;17.15;5.28;;;;;;;3.30;71.94;101237.97;4990339;28;20026;-79
2024/01/22 01:49:31;;;;;;;13.48;5.18;;;;;;;3.30;72.31;101235.38;4990295;28;20034;-80
2024/01/22 01:51:57;;;;;;;11.57;4.23;;;;;;;3.32;71.93;101243.22;4972834;28;20088;-79
2024/01/22 01:54:24;;;;;;;17.52;4.72;;;;;;;3.34;71.45;101247.69;4990048;28;20434;-80
2024/01/22 01:56:50;;;;;;;14.73;4.45;;;;;;;3.33;72.06;101248.50;4989733;28;20030;-80
2024/01/22 01:59:16;;;;;;;18.42;5.40;;;;;;;3.31;71.84;101250.16;4989604;28;20046;-80
2024/01/22 02:01:42;;;;;;;14.80;4.90;;;;;;;3.32;71.88;101253.63;4989845;28;20031;-80
2024/01/22 02:04:07;;;;;;;12.48;4.80;;;;;;;3.31;72.03;101252.75;4990113;28;19992;-80
2024/01/22 02:06:33;;;;;;;12.97;4.73;;;;;;;3.30;72.36;101251.84;4990178;28;20031;-79
2024/01/22 02:08:58;;;;;;;13.20;5.10;;;;;;;3.29;72.06;101247.47;4989943;28;20081;-80
2024/01/22 02:11:24;;;;;;;14.13;5.40;;;;;;;3.29;72.27;101241.41;4990235;28;20364;-78
2024/01/22 02:13:49;;;;;;;14.93;4.80;;;;;;;3.28;72.39;101243.09;4989784;28;20046;-79
2024/01/22 02:16:15;;;;;;;16.30;5.00;;;;;;;3.29;72.49;101241.41;4989580;28;20037;-80
2024/01/22 02:18:40;;;;;;;13.87;5.47;;;;;;;3.29;72.50;101228.38;4989752;28;20022;-80
2024/01/22 02:21:05;;;;;;;15.33;4.80;;;;;;;3.31;72.73;101226.72;4989878;28;20053;-78
2024/01/22 02:23:31;;;;;;;13.02;4.65;;;;;;;3.30;72.60;101224.94;4972295;28;20120;-80
2024/01/22 02:25:56;;;;;;;13.90;4.70;;;;;;;3.29;72.34;101225.78;4998962;28;20549;-79
2024/01/22 02:28:22;;;;;;;16.10;4.30;;;;;;;3.29;72.25;101223.19;4990027;28;20562;-80
2024/01/22 02:30:47;;;;;;;14.70;3.90;;;;;;;3.30;72.44;101230.16;4989801;28;20026;-79
2024/01/22 02:33:12;;;;;;;12.87;4.50;;;;;;;3.30;72.51;101227.56;4990126;28;20057;-79
2024/01/22 02:35:38;;;;;;;12.57;4.63;;;;;;;3.31;72.59;101226.72;4989669;28;20022;-80
2024/01/22 02:38:04;;;;;;;15.10;4.53;;;;;;;3.30;72.20;101227.56;4989737;28;20041;-80
2024/01/22 02:40:29;;;;;;;13.40;4.53;;;;;;;3.28;72.23;101235.28;4996886;28;20021;-80
2024/01/22 02:42:54;;;;;;;15.03;5.10;;;;;;;3.28;72.02;101242.22;5007015;28;20080;-79
2024/01/22 02:45:20;;;;;;;15.33;4.67;;;;;;;3.27;72.20;101245.66;4989666;28;20057;-79
2024/01/22 02:47:45;;;;;;;16.17;4.60;;;;;;;3.27;72.22;101240.44;4989874;28;20023;-79
2024/01/22 02:50:11;;;;;;;12.63;4.60;;;;;;;3.26;72.15;101236.06;4989691;28;20233;-80
2024/01/22 02:52:36;;;;;;;13.07;4.53;;;;;;;3.22;72.17;101232.44;4990060;28;20282;-79
2024/01/22 02:55:01;;;;;;;15.33;3.97;;;;;;;3.21;72.11;101233.25;4990782;28;20065;-79
2024/01/22 02:57:27;;;;;;;12.30;4.20;;;;;;;3.22;72.12;101231.53;4992905;28;20030;-79
2024/01/22 02:59:52;;;;;;;13.33;4.80;;;;;;;3.18;72.19;101224.44;4992723;28;20082;-80
2024/01/22 03:02:18;;;;;;;16.20;4.22;;;;;;;3.15;72.29;101210.47;4993114;28;20038;-79
2024/01/22 03:04:43;;;;;;;11.87;4.60;;;;;;;3.14;72.13;101216.50;4993477;28;20065;-79
2024/01/22 03:07:09;;;;;;;11.90;4.70;;;;;;;3.14;72.47;101218.22;4992954;28;20315;-79
2024/01/22 03:09:35;;;;;;;13.23;3.90;;;;;;;3.12;72.40;101219.84;4993047;28;20075;-80
2024/01/22 03:12:01;;;;;;;12.70;4.80;;;;;;;3.13;72.11;101224.22;4992859;28;20425;-79
2024/01/22 03:14:26;;;;;;;11.80;4.20;;;;;;;3.12;72.49;101236.38;4992576;28;20022;-80
2024/01/22 03:16:51;;;;;;;12.83;4.00;;;;;;;3.12;72.09;101231.16;4992705;28;20026;-80
2024/01/22 03:19:17;;;;;;;11.30;4.10;;;;;;;3.12;72.09;101220.75;4992719;28;20038;-79
2024/01/22 03:21:42;;;;;;;14.77;4.37;;;;;;;3.13;72.13;101226.81;4992611;28;20475;-79
2024/01/22 03:24:07;;;;;;;12.45;4.25;;;;;;;3.13;72.24;101235.53;4995256;28;20105;-79
2024/01/22 03:26:33;;;;;;;10.33;4.10;;;;;;;3.12;72.04;101236.38;4998981;28;20042;-79
2024/01/22 03:28:58;;;;;;;11.77;4.57;;;;;;;3.12;72.26;101243.28;4992374;28;20026;-79
2024/01/22 03:31:29;;;;;;;12.67;4.27;;;;;;;3.10;71.92;101242.31;4974972;28;20022;-79
2024/01/22 03:33:55;;;;;;;10.85;3.83;;;;;;;3.06;71.99;101246.53;4992478;28;20101;-80
2024/01/22 03:36:22;;;;;;;14.00;4.20;;;;;;;3.04;72.31;101244.66;4992067;28;20034;-80
2024/01/22 03:38:48;;;;;;;10.60;4.05;;;;;;;3.02;72.36;101249.81;4974872;28;20038;-79
2024/01/22 03:41:14;;;;;;;9.90;3.70;;;;;;;2.99;71.37;101260.06;5005810;28;20029;-79
2024/01/22 03:43:46;;;;;;;13.60;4.17;;;;;;;2.97;71.93;101251.31;5003507;28;20030;-79
2024/01/22 03:46:12;;;;;;;11.20;3.60;;;;;;;2.94;71.88;101256.41;4992173;28;20034;-79
2024/01/22 03:48:38;;;;;;;10.45;3.90;;;;;;;2.91;72.34;101264.97;4992261;28;20491;-79
2024/01/22 03:51:04;;;;;;;9.73;3.80;;;;;;;2.88;71.28;101262.22;4991605;28;20085;-79
2024/01/22 03:53:29;;;;;;;11.70;4.18;;;;;;;2.84;72.22;101260.31;4991919;28;20552;-80
2024/01/22 03:55:55;;;;;;;13.10;4.13;;;;;;;2.81;72.03;101268.88;4991976;28;20026;-80
2024/01/22 03:58:20;;;;;;;12.45;4.30;;;;;;;2.78;72.16;101270.44;4991854;28;20551;-79
2024/01/22 04:00:45;;;;;;;11.03;3.60;;;;;;;2.75;72.14;101271.19;4991506;28;20540;-80
2024/01/22 04:03:11;;;;;;;11.63;4.20;;;;;;;2.72;71.73;101271.97;4991845;28;20038;-78
2024/01/22 04:05:37;;;;;;;12.60;4.00;;;;;;;2.69;72.14;101268.31;4991792;28;20031;-80
2024/01/22 04:08:03;;;;;;;11.05;3.97;;;;;;;2.67;72.35;101267.38;4991129;28;20557;-79
2024/01/22 04:10:28;;;;;;;13.10;4.10;;;;;;;2.64;72.50;101273.31;4991648;28;20026;-79
2024/01/22 04:12:56;;;;;;;9.35;4.03;;;;;;;2.63;72.14;101265.47;4991886;28;20407;-79
2024/01/22 04:15:23;;;;;;;12.87;4.33;;;;;;;2.60;71.99;101271.41;4991506;28;20475;-79
2024/01/22 04:17:48;;;;;;;9.52;3.92;;;;;;;2.58;72.05;101265.25;4991610;28;20086;-80
2024/01/22 04:20:14;;;;;;;11.82;3.55;;;;;;;2.55;72.22;101257.31;4991646;28;20026;-78
2024/01/22 04:22:39;;;;;;;8.97;3.93;;;;;;;2.52;72.03;101249.38;4991670;28;20265;-78
2024/01/22 04:25:05;;;;;;;10.47;4.10;;;;;;;2.47;71.97;101243.97;5000752;28;20026;-79
2024/01/22 04:27:30;;;;;;;13.43;4.72;;;;;;;2.46;71.88;101252.59;4991893;28;20037;-79
2024/01/22 04:29:56;;;;;;;12.20;4.00;;;;;;;2.46;72.64;101242.19;4991553;28;20503;-79
2024/01/22 04:32:21;;;;;;;11.73;4.53;;;;;;;2.46;72.45;101241.31;4991537;28;20418;-80
2024/01/22 04:34:47;;;;;;;13.30;4.90;;;;;;;2.48;73.03;101247.47;4991389;28;20030;-80
2024/01/22 04:37:13;;;;;;;12.82;4.97;;;;;;;2.48;72.42;101245.75;4991240;28;20113;-80
2024/01/22 04:39:40;;;;;;;13.93;4.53;;;;;;;2.50;73.45;101249.31;4992099;28;20390;-79
2024/01/22 04:42:05;;;;;;;12.40;4.10;;;;;;;2.51;73.49;101245.00;5011120;28;20030;-79
2024/01/22 04:44:31;;;;;;;15.57;4.80;;;;;;;2.54;74.24;101245.13;4995310;28;20041;-79
2024/01/22 04:46:57;;;;;;;12.70;4.80;;;;;;;2.56;74.58;101259.09;4991061;28;20538;-79
2024/01/22 04:49:22;;;;;;;13.32;4.75;;;;;;;2.56;74.10;101262.59;4973793;28;20033;-79
2024/01/22 04:51:48;;;;;;;16.20;4.40;;;;;;;2.56;74.16;101265.19;4991495;28;20037;-79
2024/01/22 04:54:13;;;;;;;13.40;4.05;;;;;;;2.57;74.08;101266.97;4991046;28;20489;-79
2024/01/22 04:56:44;;;;;;;16.77;4.50;;;;;;;2.57;74.39;101264.38;4991092;28;20077;-79
2024/01/22 04:59:10;;;;;;;12.98;4.07;;;;;;;2.57;74.62;101272.19;4990597;28;20026;-79
2024/01/22 05:01:35;;;;;;;14.10;4.77;;;;;;;2.58;74.35;101267.84;4990790;28;20023;-78
2024/01/22 05:04:01;;;;;;;16.10;4.45;;;;;;;2.57;74.69;101272.19;4991375;28;20379;-79
2024/01/22 05:06:26;;;;;;;13.00;4.30;;;;;;;2.57;74.94;101276.47;4991273;28;20060;-80
2024/01/22 05:08:52;;;;;;;12.10;4.67;;;;;;;2.57;74.10;101282.56;4991138;28;20026;-80
2024/01/22 05:11:17;;;;;;;11.90;4.10;;;;;;;2.57;74.13;101292.06;4990742;28;20522;-79
2024/01/22 05:13:53;;;;;;;14.65;4.57;;;;;;;2.58;74.55;101291.25;4990842;28;20022;-80
2024/01/22 05:16:21;;;;;;;11.80;4.32;;;;;;;2.57;74.22;101282.56;4990714;28;20037;-80
2024/01/22 05:18:48;;;;;;;16.87;4.27;;;;;;;2.59;74.66;101285.22;4989844;28;20036;-79
2024/01/22 05:21:13;;;;;;;15.48;4.55;;;;;;;2.59;74.50;101293.03;4990794;28;20034;-80
2024/01/22 05:23:40;;;;;;;17.42;4.82;;;;;;;2.60;75.42;101281.81;4990268;28;20035;-80
2024/01/22 05:26:06;;;;;;;18.63;3.87;;;;;;;2.63;75.21;101291.47;4982251;28;20030;-79
2024/01/22 05:28:32;;;;;;;11.07;3.97;;;;;;;2.65;75.67;101295.03;4990652;28;20029;-79
2024/01/22 05:30:57;;;;;;;15.48;4.43;;;;;;;2.67;75.47;101286.47;4990304;28;20034;-79
2024/01/22 05:33:22;;;;;;;10.30;4.13;;;;;;;2.70;75.45;101297.03;4972980;28;20409;-80
2024/01/22 05:35:48;;;;;;;21.77;7.07;;;;;;;2.72;75.40;101297.06;4996871;28;20026;-80
2024/01/22 05:38:14;;;;;;;20.02;7.15;;;;;;;2.71;75.94;101295.28;5006332;28;20502;-79
2024/01/22 05:40:40;;;;;;;13.63;5.80;;;;;;;2.74;75.90;101292.81;4975395;28;20046;-80
2024/01/22 05:43:05;;;;;;;18.63;6.55;;;;;;;2.78;76.41;101292.16;5003437;28;20040;-80
2024/01/22 05:45:31;;;;;;;15.93;5.90;;;;;;;2.80;77.05;101285.31;4996336;28;20069;-79
2024/01/22 05:47:56;;;;;;;15.82;4.80;;;;;;;2.83;76.51;101287.16;5003915;28;20029;-79
2024/01/22 05:50:22;;;;;;;13.43;4.03;;;;;;;2.89;76.55;101289.13;4996470;28;20046;-80
2024/01/22 05:52:47;;;;;;;12.30;4.30;;;;;;;2.90;76.88;101283.09;4999343;28;20551;-80
2024/01/22 05:55:13;;;;;;;13.30;3.80;;;;;;;2.91;77.11;101274.47;4997399;28;20027;-79
2024/01/22 05:57:38;;;;;;;10.68;3.95;;;;;;;2.95;77.03;101273.78;5001804;28;20032;-79
2024/01/22 06:00:13;;;;;;;11.23;4.40;;;;;;;2.98;76.76;101284.31;4991999;28;20069;-79
2024/01/22 06:02:42;;;;;;;13.73;3.75;;;;;;;2.99;76.83;101286.09;4989028;28;20026;-80
2024/01/22 06:05:09;;;;;;;13.07;4.60;;;;;;;2.99;77.29;101281.78;5008263;28;20030;-80
2024/01/22 06:07:36;;;;;;;12.63;3.43;;;;;;;3.00;76.73;101299.19;4999101;28;20575;-80
2024/01/22 06:10:02;;;;;;;17.25;4.68;;;;;;;3.00;76.33;101298.28;4990935;28;20031;-79
2024/01/22 06:12:27;;;;;;;11.02;4.18;;;;;;;2.98;76.70;101297.34;4989393;28;20109;-79
2024/01/22 06:14:52;;;;;;;11.10;4.33;;;;;;;2.94;76.26;101300.63;4989800;28;20485;-79
2024/01/22 06:17:18;;;;;;;14.87;5.10;;;;;;;2.93;76.78;101301.44;4989833;28;20526;-78
2024/01/22 06:19:43;;;;;;;16.60;4.20;;;;;;;2.92;77.16;101299.66;4989921;28;20063;-79
2024/01/22 06:22:10;;;;;;;13.73;3.80;;;;;;;2.93;76.53;101301.44;4990015;28;20278;-79
2024/01/22 06:24:36;;;;;;;13.75;3.42;;;;;;;2.94;76.77;101318.84;4996379;28;20053;-79
2024/01/22 06:27:03;;;;;;;14.17;4.03;;;;;;;2.93;76.22;101317.06;4974947;28;20027;-79
2024/01/22 06:29:28;;;;;;;13.48;4.43;;;;;;;2.92;76.25;101320.47;4990677;28;20030;-79
2024/01/22 06:31:54;;;;;;;12.13;4.23;;;;;;;2.90;76.13;101328.25;4993794;28;20057;-78
2024/01/22 06:34:20;;;;;;;13.55;4.30;;;;;;;2.89;76.38;101328.16;4993536;28;20028;-78
2024/01/22 06:36:45;;;;;;;12.77;3.77;;;;;;;2.87;76.09;101334.19;4993632;28;20030;-78
2024/01/22 06:39:11;;;;;;;17.55;4.30;;;;;;;2.85;76.08;101333.22;4993477;28;20029;-79
2024/01/22 06:41:36;;;;;;;16.43;4.40;;;;;;;2.83;75.93;101327.06;5000548;28;20034;-79
2024/01/22 06:44:02;;;;;;;12.30;4.90;;;;;;;2.83;76.42;101328.75;5004807;28;20037;-79
2024/01/22 06:46:27;;;;;;;13.57;3.97;;;;;;;2.82;76.42;101337.38;5013403;28;20033;-79
2024/01/22 06:48:52;;;;;;;11.73;4.10;;;;;;;2.80;76.80;101332.13;5013157;28;20026;-79
2024/01/22 06:51:18;;;;;;;16.13;3.90;;;;;;;2.80;76.52;101324.34;5013214;28;20032;-79
2024/01/22 06:53:44;;;;;;;12.70;4.33;;;;;;;2.78;76.86;101318.19;5012786;28;20025;-79
2024/01/22 06:56:09;;;;;;;9.73;3.83;;;;;;;2.79;76.74;101317.34;5012743;28;20026;-79
2024/01/22 06:58:35;;;;;;;12.53;4.27;;;;;;;2.78;76.89;101312.97;5012516;28;20036;-79
2024/01/22 07:01:00;;;;;;;14.80;4.97;;;;;;;2.77;77.15;101305.97;5012413;28;20288;-78
2024/01/22 07:03:26;;;;;;;9.67;3.67;;;;;;;2.76;77.13;101309.38;4986863;28;20510;-77
2024/01/22 07:05:52;;;;;;;14.60;4.10;;;;;;;2.77;77.06;101311.16;4987140;28;20277;-79
2024/01/22 07:08:19;;;;;;;16.63;5.05;;;;;;;2.75;77.01;101307.59;4990030;28;20076;-79
2024/01/22 07:10:44;;;;;;;12.40;4.07;;;;;;;2.73;76.98;101309.25;4993225;28;20062;-80
2024/01/22 07:13:10;;;;;;;16.17;4.35;;;;;;;2.72;76.76;101310.06;4993082;28;20105;-81
2024/01/22 07:15:36;;;;;;;17.20;4.60;;;;;;;2.71;77.11;101310.91;4992926;28;20483;-79
2024/01/22 07:18:01;;;;;;;13.27;3.90;;;;;;;2.71;76.93;101310.91;4992929;28;20395;-79
2024/01/22 07:20:28;;;;;;;15.83;5.27;;;;;;;2.73;77.30;101315.34;4992727;28;20093;-80
2024/01/22 07:22:53;;;;;;;21.08;7.25;;;;;;;2.71;77.16;101321.31;4992132;28;20031;-80
2024/01/22 07:25:20;;;;;;;18.77;6.30;;;;;;;2.73;77.42;101319.66;5001881;28;20022;-81
2024/01/22 07:27:45;;;;;;;21.30;7.13;;;;;;;2.74;76.72;101331.84;4992806;28;20113;-80
2024/01/22 07:30:12;;;;;;;16.20;5.70;;;;;;;2.75;76.89;101333.63;4992793;28;20050;-80
2024/01/22 07:32:41;;;;;;;16.27;4.00;;;;;;;2.73;77.03;101337.88;4991624;28;20309;-80
2024/01/22 07:35:09;;;;;;;14.88;4.78;;;;;;;2.74;77.17;101342.25;4991719;28;20473;-78
2024/01/22 07:37:36;;;;;;;13.23;3.90;;;;;;;2.75;76.64;101345.75;4990414;28;20030;-79
2024/01/22 07:40:04;;;;;;;12.98;4.07;;;;;;;2.75;77.18;101340.53;4994568;28;20032;-79
2024/01/22 07:42:33;;;;;;;11.57;3.97;;;;;;;2.75;77.11;101340.53;4990048;28;20033;-79
2024/01/22 07:44:59;;;;;;;11.00;4.60;;;;;;;2.74;76.90;101342.25;4990615;28;20603;-80
2024/01/22 07:47:25;;;;;;;16.75;6.72;;;;;;;2.73;77.98;101333.56;4991841;28;20034;-82
2024/01/22 07:49:50;;;;;;;15.50;5.37;;;;;;;2.74;78.30;101337.03;4992367;28;20117;-80
2024/01/22 07:52:16;;;;;;;13.77;5.13;;;;;;;2.78;77.88;101339.00;4974662;28;20037;-81
2024/01/22 07:54:41;;;;;;;19.58;6.20;;;;;;;2.82;77.77;101351.31;4992224;28;20026;-81
2024/01/22 07:57:10;;;;;;;19.00;5.80;;;;;;;2.83;77.27;101353.09;4992536;28;20026;-81
2024/01/22 07:59:37;;;;;;;15.48;6.10;;;;;;;2.87;77.61;101361.91;4991839;28;20511;-81
2024/01/22 08:02:04;;;;;;;20.50;6.50;;;;;;;2.89;77.74;101370.66;4992262;28;20253;-81
2024/01/22 08:04:30;;;;;;;15.30;6.43;;;;;;;2.93;77.48;101363.88;4992378;28;20027;-81
2024/01/22 08:06:55;;;;;;;14.40;5.80;;;;;;;2.96;77.71;101374.44;4991976;28;20027;-81
2024/01/22 08:09:20;;;;;;;16.30;6.70;;;;;;;3.00;77.47;101376.34;4991963;28;20069;-81
2024/01/22 08:11:47;;;;;;;17.13;6.40;;;;;;;3.03;77.67;101367.81;4991868;28;20030;-81
2024/01/22 08:14:13;;;;;;;16.10;6.40;;;;;;;3.11;78.54;101369.03;4991915;28;20045;-80
2024/01/22 08:16:38;;;;;;;17.53;4.13;;;;;;;3.24;78.61;101354.81;4991930;28;20030;-81
2024/01/22 08:19:04;;;;;;;21.88;5.22;;;;;;;3.38;78.06;101358.94;4991847;28;20050;-81
2024/01/22 08:21:29;;;;;;;14.93;4.57;;;;;;;3.52;78.38;101363.84;4991776;28;20026;-81
2024/01/22 08:24:32;;;;;;;17.93;4.80;;;;;;;3.81;79.73;101353.75;4992500;28;20035;-81
2024/01/22 08:26:57;;;;;;;15.73;5.78;;;;;;;4.10;79.15;101335.81;4977048;28;20030;-81
2024/01/22 08:29:23;;;;;;;16.60;5.83;;;;;;;4.42;78.14;101328.34;4991525;28;20027;-81
2024/01/22 08:31:48;;;;;;;15.60;4.97;;;;;;;4.63;77.68;101329.97;4991508;28;20019;-79
2024/01/22 08:34:14;;;;;;;15.82;4.00;;;;;;;4.73;76.91;101326.91;4991032;28;20026;-81
2024/01/22 08:36:39;;;;;;;13.77;4.67;;;;;;;4.95;76.86;101323.34;4991634;28;20022;-80
2024/01/22 08:39:05;;;;;;;16.13;4.57;;;;;;;5.16;77.27;101311.91;4991509;28;20085;-81
2024/01/22 08:41:30;;;;;;;15.20;4.70;;;;;;;5.37;75.86;101314.34;5007382;28;20394;-81
2024/01/22 08:43:57;;;;;;;11.23;4.40;;;;;;;5.54;75.58;101312.31;5000015;28;20572;-81
2024/01/22 08:46:23;;;;;;;20.60;4.70;;;;;;;5.74;75.21;101322.53;4991472;28;20049;-81
2024/01/22 08:48:49;;;;;;;13.23;4.13;;;;;;;5.96;74.89;101318.00;4991563;28;20490;-82
2024/01/22 08:51:15;;;;;;;14.27;4.95;;;;;;;6.08;75.11;101322.78;4991302;28;20053;-81
2024/01/22 08:53:40;;;;;;;16.03;4.40;;;;;;;6.12;74.98;101333.38;4990992;28;20122;-82
2024/01/22 08:56:06;;;;;;;14.90;4.73;;;;;;;6.23;75.12;101336.34;4991156;28;20033;-82
2024/01/22 08:58:31;;;;;;;15.03;4.70;;;;;;;6.30;75.06;101338.28;4990934;28;20030;-81
2024/01/22 09:00:57;;;;;;;14.53;4.93;;;;;;;6.43;74.47;101334.31;4990720;28;20289;-82
2024/01/22 09:03:24;;;;;;;13.20;4.40;;;;;;;6.45;74.47;101337.00;4991080;28;20114;-82
2024/01/22 09:05:50;;;;;;;14.32;4.55;;;;;;;6.49;74.52;101322.25;4990886;28;20022;-82
2024/01/22 09:08:15;;;;;;;16.27;4.23;;;;;;;6.45;74.68;101318.69;4991052;28;20046;-82
2024/01/22 09:10:41;;;;;;;11.77;4.30;;;;;;;6.44;74.78;101314.28;4990931;28;20026;-81
2024/01/22 09:13:08;;;;;;;14.27;4.97;;;;;;;6.49;74.48;101315.31;4990733;28;20032;-81
2024/01/22 09:15:33;;;;;;;18.40;4.47;;;;;;;6.45;75.02;101305.59;4990567;28;20039;-81
2024/01/22 09:17:59;;;;;;;13.93;4.57;;;;;;;6.43;75.76;101308.16;4990606;28;20030;-82
2024/01/22 09:20:24;;;;;;;13.00;4.28;;;;;;;6.42;76.03;101309.00;4972967;28;20030;-81
2024/01/22 09:22:50;;;;;;;13.03;4.27;;;;;;;6.40;75.84;101308.06;4990690;28;20038;-81
2024/01/22 09:25:15;;;;;;;15.47;4.50;;;;;;;6.38;75.75;101303.63;4999769;28;20042;-81
2024/01/22 09:27:41;;;;;;;17.47;6.00;;;;;;;6.41;75.73;101308.97;4990814;28;20053;-81
2024/01/22 09:30:06;;;;;;;17.00;4.70;;;;;;;6.35;76.71;101303.53;4990287;28;20116;-81
2024/01/22 09:32:32;;;;;;;16.63;5.50;;;;;;;6.30;76.24;101304.28;4990567;28;20113;-80
2024/01/22 09:34:57;;;;;;;13.93;4.60;;;;;;;6.24;76.28;101314.56;4990524;28;20081;-80
2024/01/22 09:37:23;;;;;;;18.13;4.75;;;;;;;6.20;76.17;101310.09;4990592;28;20076;-80
2024/01/22 09:39:49;;;;;;;16.27;4.80;;;;;;;6.14;75.95;101305.56;4992550;28;20110;-80
2024/01/22 09:42:14;;;;;;;19.45;5.10;;;;;;;6.12;76.35;101302.00;5010265;28;20014;-80
2024/01/22 09:44:44;;;;;;;13.03;5.27;;;;;;;6.11;77.68;101299.31;4993272;28;20040;-82
2024/01/22 09:47:10;;;;;;;12.02;4.78;;;;;;;6.09;77.19;101295.78;4990344;28;20031;-80
2024/01/22 09:49:36;;;;;;;21.33;5.78;;;;;;;6.10;77.28;101282.75;4990607;28;20081;-81
2024/01/22 09:52:03;;;;;;;16.00;5.33;;;;;;;6.13;77.16;101281.94;4990419;28;20053;-81
2024/01/22 09:54:30;;;;;;;16.25;4.82;;;;;;;6.16;76.78;101295.16;4990421;28;20026;-81
2024/01/22 09:56:57;;;;;;;13.90;4.65;;;;;;;6.21;77.18;101321.41;4990132;28;20521;-79
2024/01/22 09:59:28;;;;;;;15.70;4.65;;;;;;;6.29;76.85;101336.53;4989960;28;20046;-80
2024/01/22 10:01:55;;;;;;;13.63;4.93;;;;;;;6.49;76.39;101332.72;4990209;28;20066;-79
2024/01/22 10:04:23;;;;;;;13.50;4.93;;;;;;;6.82;76.88;101343.31;4990901;28;20048;-80
2024/01/22 10:06:50;;;;;;;17.67;5.43;;;;;;;7.14;76.94;101343.34;4994267;28;20491;-80
2024/01/22 10:09:17;;;;;;;13.07;5.38;;;;;;;7.43;75.70;101329.22;4994369;28;20037;-80
2024/01/22 10:11:46;;;;;;;13.07;4.47;;;;;;;7.52;75.41;101325.97;4994407;28;20050;-80
2024/01/22 10:14:12;;;;;;;15.32;5.03;;;;;;;7.52;75.38;101320.72;4994228;28;20033;-81
2024/01/22 10:16:38;;;;;;;13.43;4.67;;;;;;;7.49;74.95;101325.88;4994333;28;20407;-81
2024/01/22 10:19:08;;;;;;;15.10;5.17;;;;;;;7.56;74.66;101314.69;4994194;28;20033;-80
2024/01/22 10:21:35;;;;;;;18.02;5.25;;;;;;;7.63;75.10;101313.13;4993903;28;20026;-81
2024/01/22 10:24:03;;;;;;;12.68;4.50;;;;;;;7.71;74.88;101317.72;4995702;28;20041;-81
2024/01/22 10:26:30;;;;;;;16.00;4.75;;;;;;;7.87;75.11;101332.09;4997418;28;20026;-82
2024/01/22 10:29:12;;;;;;;16.15;5.05;;;;;;;8.05;74.21;101333.38;4994027;28;20426;-80
2024/01/22 10:31:56;;;;;;;18.60;5.63;;;;;;;8.16;74.24;101333.63;4994198;28;20225;-81
2024/01/22 10:34:30;;;;;;;14.93;4.78;;;;;;;8.23;74.52;101345.16;4993489;28;20026;-81
2024/01/22 10:37:09;;;;;;;17.55;4.78;;;;;;;8.32;74.35;101348.00;4976481;28;20034;-79
2024/01/22 10:39:38;;;;;;;11.75;4.07;;;;;;;8.39;74.25;101349.88;4993942;28;20434;-80
2024/01/22 10:42:14;;;;;;;16.42;4.97;;;;;;;8.44;74.13;101364.03;4993810;28;20035;-80
2024/01/22 10:44:44;;;;;;;12.13;4.20;;;;;;;8.48;74.09;101371.13;5009988;28;20389;-80
2024/01/22 10:47:14;;;;;;;14.48;4.15;;;;;;;8.52;74.14;101358.97;5013141;28;20026;-80
2024/01/22 10:49:42;;;;;;;15.55;4.90;;;;;;;8.65;74.25;101359.25;4995505;28;20118;-81
2024/01/22 10:52:08;;;;;;;13.80;4.25;;;;;;;8.70;74.21;101365.47;4995270;28;20076;-80
2024/01/22 10:54:35;;;;;;;13.53;4.23;;;;;;;8.76;73.96;101349.84;5013106;28;20445;-80
2024/01/22 10:57:05;;;;;;;16.20;4.40;;;;;;;8.81;73.83;101340.34;5012801;28;20037;-81
2024/01/22 10:59:36;;;;;;;10.93;3.95;;;;;;;8.84;73.70;101327.25;4994942;28;20529;-81
2024/01/22 11:02:04;;;;;;;13.30;3.47;;;;;;;8.79;73.81;101317.50;5012841;28;20481;-81
2024/01/22 11:04:33;;;;;;;15.80;4.20;;;;;;;8.75;73.80;101308.66;5012969;28;20521;-81
2024/01/22 11:07:01;;;;;;;16.13;4.85;;;;;;;8.76;73.99;101310.44;5013134;28;20034;-79
2024/01/22 11:09:31;;;;;;;14.77;4.53;;;;;;;8.78;73.85;101299.97;5012881;28;20026;-79
2024/01/22 11:12:02;;;;;;;14.07;4.70;;;;;;;8.83;73.83;101303.56;4994909;28;20605;-81
2024/01/22 11:14:28;;;;;;;15.82;4.47;;;;;;;8.89;73.66;101296.72;5012420;28;20121;-79
2024/01/22 11:16:54;;;;;;;16.10;5.07;;;;;;;9.23;73.30;101283.31;5011144;28;20495;-79
2024/01/22 11:19:23;;;;;;;10.57;4.07;;;;;;;9.44;73.33;101272.28;5007053;28;20382;-79